createdAt,value
2023-09-05T00:01:56.684Z,101292.75
2023-09-05T00:04:23.544Z,101287.56
2023-09-05T00:06:50.285Z,101290.75
2023-09-05T00:09:19.344Z,101289.94
2023-09-05T00:11:46.912Z,101295.94
2023-09-05T00:14:14.161Z,101295.53
2023-09-05T00:16:41.077Z,101292.31
2023-09-05T00:19:07.961Z,101293.47
2023-09-05T00:21:34.737Z,101298.69
2023-09-05T00:24:46.755Z,101296.28
2023-09-05T00:27:14.305Z,101299.47
2023-09-05T00:29:42.616Z,101281.81
2023-09-05T00:32:10.921Z,101285.03
2023-09-05T00:34:39.695Z,101287.00
2023-09-05T00:37:09.019Z,101293.03
2023-09-05T00:39:36.901Z,101285.78
2023-09-05T00:42:07.171Z,101271.34
2023-09-05T00:44:34.248Z,101268.09
2023-09-05T00:47:02.239Z,101263.28
2023-09-05T00:49:29.561Z,101262.84
2023-09-05T00:52:01.118Z,101258.03
2023-09-05T00:54:28.221Z,101260.03
2023-09-05T00:56:55.063Z,101263.22
2023-09-05T00:59:22.590Z,101257.59
2023-09-05T01:01:49.743Z,101253.97
2023-09-05T01:04:17.792Z,101258.78
2023-09-05T01:07:01.578Z,101253.94
2023-09-05T01:09:43.662Z,101255.16
2023-09-05T01:12:10.695Z,101253.88
2023-09-05T01:14:37.449Z,101251.09
2023-09-05T01:17:06.740Z,101251.09
2023-09-05T01:19:38.842Z,101249.47
2023-09-05T01:22:17.951Z,101235.03
2023-09-05T01:24:48.949Z,101230.22
2023-09-05T01:27:21.223Z,101227.81
2023-09-05T01:29:48.662Z,101234.59
2023-09-05T01:32:15.533Z,101222.97
2023-09-05T01:34:42.605Z,101219.75
2023-09-05T01:37:15.475Z,101217.34
2023-09-05T01:39:43.106Z,101221.31
2023-09-05T01:42:10.000Z,101219.72
2023-09-05T01:44:37.539Z,101216.50
2023-09-05T01:47:04.938Z,101217.66
2023-09-05T01:49:31.759Z,101216.06
2023-09-05T01:51:58.502Z,101218.06
2023-09-05T01:54:25.801Z,101206.03
2023-09-05T01:56:52.621Z,101203.63
2023-09-05T01:59:22.889Z,101199.22
2023-09-05T02:01:50.007Z,101195.59
2023-09-05T02:04:16.824Z,101193.19
2023-09-05T02:06:43.646Z,101194.38
2023-09-05T02:09:10.674Z,101202.38
2023-09-05T02:11:37.472Z,101190.75
2023-09-05T02:14:04.300Z,101193.13
2023-09-05T02:16:32.251Z,101188.72
2023-09-05T02:19:01.617Z,101195.91
2023-09-05T02:21:28.511Z,101191.47
2023-09-05T02:23:55.331Z,101183.47
2023-09-05T02:26:22.164Z,101185.06
2023-09-05T02:28:48.935Z,101186.25
2023-09-05T02:31:15.723Z,101181.84
2023-09-05T02:33:42.524Z,101176.63
2023-09-05T02:36:19.617Z,101169.00
2023-09-05T02:38:47.228Z,101171.75
2023-09-05T02:41:15.206Z,101164.13
2023-09-05T02:43:42.360Z,101167.31
2023-09-05T02:46:09.838Z,101163.28
2023-09-05T02:48:41.386Z,101165.69
2023-09-05T02:51:10.456Z,101168.84
2023-09-05T02:53:38.139Z,101170.06
2023-09-05T02:56:05.554Z,101166.44
2023-09-05T02:58:33.575Z,101162.41
2023-09-05T03:01:05.827Z,101155.59
2023-09-05T03:03:33.359Z,101160.78
2023-09-05T03:06:16.977Z,101154.78
2023-09-05T03:08:46.486Z,101154.38
2023-09-05T03:11:20.530Z,101159.97
2023-09-05T03:13:48.649Z,101157.53
2023-09-05T03:16:15.693Z,101151.94
2023-09-05T03:18:42.972Z,101153.13
2023-09-05T03:21:09.874Z,101152.75
2023-09-05T03:23:37.464Z,101149.53
2023-09-05T03:26:04.301Z,101145.50
2023-09-05T03:28:42.518Z,101146.72
2023-09-05T03:31:09.525Z,101153.13
2023-09-05T03:33:36.503Z,101155.50
2023-09-05T03:36:04.420Z,101152.28
2023-09-05T03:38:31.307Z,101145.44
2023-09-05T03:40:58.622Z,101146.25
2023-09-05T03:43:25.643Z,101149.47
2023-09-05T03:45:52.907Z,101146.25
2023-09-05T03:48:20.133Z,101144.63
2023-09-05T03:50:46.925Z,101150.63
2023-09-05T03:53:13.650Z,101145.41
2023-09-05T03:55:40.437Z,101130.19
2023-09-05T03:58:07.193Z,101130.56
2023-09-05T04:00:34.898Z,101121.34
2023-09-05T04:03:05.758Z,101118.97
2023-09-05T04:05:35.636Z,101106.91
2023-09-05T04:08:02.940Z,101117.28
2023-09-05T04:10:29.772Z,101113.25
2023-09-05T04:12:57.522Z,101114.84
2023-09-05T04:15:24.697Z,101118.00
2023-09-05T04:17:54.776Z,101113.97
2023-09-05T04:20:21.586Z,101123.94
2023-09-05T04:22:48.352Z,101122.75
2023-09-05T04:25:16.128Z,101117.13
2023-09-05T04:27:43.051Z,101127.56
2023-09-05T04:30:10.945Z,101121.16
2023-09-05T04:32:37.834Z,101129.13
2023-09-05T04:35:05.939Z,101123.09
2023-09-05T04:37:33.115Z,101125.47
2023-09-05T04:40:00.016Z,101119.44
2023-09-05T04:42:29.547Z,101123.44
2023-09-05T04:44:56.483Z,101132.22
2023-09-05T04:47:27.626Z,101137.00
2023-09-05T04:50:00.258Z,101139.38
2023-09-05T04:52:31.147Z,101139.38
2023-09-05T04:55:00.646Z,101132.97
2023-09-05T04:57:28.586Z,101140.13
2023-09-05T04:59:59.301Z,101123.75
2023-09-05T05:02:27.493Z,101130.53
2023-09-05T05:04:55.226Z,101127.72
2023-09-05T05:07:22.370Z,101124.09
2023-09-05T05:09:49.270Z,101125.72
2023-09-05T05:12:18.573Z,101124.09
2023-09-05T05:14:45.332Z,101112.91
2023-09-05T05:17:14.964Z,101115.72
2023-09-05T05:19:42.217Z,101118.50
2023-09-05T05:22:09.321Z,101121.31
2023-09-05T05:24:36.298Z,101108.50
2023-09-05T05:27:03.066Z,101104.91
2023-09-05T05:29:33.707Z,101115.28
2023-09-05T05:32:02.194Z,101094.09
2023-09-05T05:34:31.010Z,101095.28
2023-09-05T05:36:58.235Z,101104.88
2023-09-05T05:39:26.830Z,101092.03
2023-09-05T05:41:53.919Z,101095.66
2023-09-05T05:44:20.757Z,101100.44
2023-09-05T05:46:47.518Z,101087.25
2023-09-05T05:49:14.521Z,101104.44
2023-09-05T05:51:41.668Z,101104.03
2023-09-05T05:54:08.654Z,101100.03
2023-09-05T05:56:36.378Z,101107.25
2023-09-05T05:59:03.540Z,101111.22
2023-09-05T06:01:30.382Z,101110.84
2023-09-05T06:03:57.320Z,101110.41
2023-09-05T06:06:24.143Z,101117.63
2023-09-05T06:08:51.016Z,101114.00
2023-09-05T06:11:17.768Z,101120.81
2023-09-05T06:13:44.765Z,101108.41
2023-09-05T06:16:11.661Z,101119.59
2023-09-05T06:18:38.500Z,101126.81
2023-09-05T06:21:05.317Z,101120.03
2023-09-05T06:23:33.895Z,101113.66
2023-09-05T06:26:01.093Z,101103.25
2023-09-05T06:28:28.199Z,101114.06
2023-09-05T06:30:59.121Z,101116.88
2023-09-05T06:33:27.425Z,101110.88
2023-09-05T06:35:54.464Z,101115.28
2023-09-05T06:38:24.733Z,101112.09
2023-09-05T06:40:51.781Z,101108.50
2023-09-05T06:43:18.621Z,101112.56
2023-09-05T06:45:45.441Z,101107.38
2023-09-05T06:48:12.291Z,101115.78
2023-09-05T06:50:39.139Z,101125.03
2023-09-05T06:53:05.990Z,101127.91
2023-09-05T06:55:36.415Z,101136.31
2023-09-05T06:58:03.628Z,101133.94
2023-09-05T07:00:30.601Z,101142.38
2023-09-05T07:02:57.652Z,101139.28
2023-09-05T07:05:25.825Z,101147.72
2023-09-05T07:07:52.746Z,101146.19
2023-09-05T07:10:19.700Z,101150.25
2023-09-05T07:12:46.561Z,101153.91
2023-09-05T07:15:13.312Z,101151.97
2023-09-05T07:17:40.209Z,101153.63
2023-09-05T07:20:09.234Z,101147.25
2023-09-05T07:22:35.987Z,101148.09
2023-09-05T07:25:03.000Z,101144.13
2023-09-05T07:27:30.144Z,101141.78
2023-09-05T07:29:56.971Z,101137.00
2023-09-05T07:32:23.908Z,101139.03
2023-09-05T07:34:50.847Z,101139.44
2023-09-05T07:37:17.848Z,101147.50
2023-09-05T07:39:46.761Z,101147.16
2023-09-05T07:42:13.557Z,101155.22
2023-09-05T07:44:41.033Z,101156.03
2023-09-05T07:47:07.931Z,101155.69
2023-09-05T07:49:38.683Z,101153.31
2023-09-05T07:52:05.807Z,101149.00
2023-09-05T07:54:32.616Z,101142.63
2023-09-05T07:56:59.773Z,101136.66
2023-09-05T07:59:26.652Z,101133.44
2023-09-05T08:01:53.547Z,101144.69
2023-09-05T08:04:20.560Z,101136.72
2023-09-05T08:06:49.272Z,101133.13
2023-09-05T08:09:16.127Z,101137.56
2023-09-05T08:11:42.949Z,101145.22
2023-09-05T08:14:09.782Z,101136.44
2023-09-05T08:16:36.604Z,101136.06
2023-09-05T08:19:03.736Z,101130.50
2023-09-05T08:21:30.558Z,101134.91
2023-09-05T08:23:57.416Z,101132.56
2023-09-05T08:26:24.222Z,101133.81
2023-09-05T08:28:52.207Z,101126.63
2023-09-05T08:31:19.502Z,101137.88
2023-09-05T08:33:46.654Z,101139.94
2023-09-05T08:36:13.517Z,101141.19
2023-09-05T08:38:40.943Z,101142.84
2023-09-05T08:41:08.575Z,101136.44
2023-09-05T08:43:36.905Z,101138.88
2023-09-05T08:46:04.686Z,101144.13
2023-09-05T08:48:47.606Z,101145.28
2023-09-05T08:51:20.292Z,101148.25
2023-09-05T08:54:00.135Z,101154.88
2023-09-05T08:56:27.899Z,101145.03
2023-09-05T08:58:56.534Z,101148.41
2023-09-05T09:01:26.527Z,101146.97
2023-09-05T09:03:55.728Z,101164.16
2023-09-05T09:06:26.557Z,101146.94
2023-09-05T09:08:54.595Z,101155.53
2023-09-05T09:14:04.321Z,101149.59
2023-09-05T09:16:31.543Z,101159.25
2023-09-05T09:19:05.925Z,101150.72
2023-09-05T09:21:41.792Z,101148.00
2023-09-05T09:24:11.547Z,101127.63
2023-09-05T09:26:40.395Z,101119.44
2023-09-05T09:29:11.025Z,101091.50
2023-09-05T09:31:43.466Z,101081.22
2023-09-05T09:34:12.229Z,101063.09
2023-09-05T09:36:39.482Z,101052.81
2023-09-05T09:39:13.451Z,101053.28
2023-09-05T09:41:45.195Z,101067.72
2023-09-05T09:44:25.318Z,101085.22
2023-09-05T09:46:53.261Z,101097.22
2023-09-05T09:49:21.120Z,101081.44
2023-09-05T09:51:55.309Z,101077.44
2023-09-05T09:54:30.712Z,101076.56
2023-09-05T09:57:01.968Z,101082.69
2023-09-05T09:59:36.556Z,101080.63
2023-09-05T10:02:13.148Z,101081.78
2023-09-05T10:04:43.394Z,101106.44
2023-09-05T10:07:18.397Z,101117.41
2023-09-05T10:09:47.245Z,101115.91
2023-09-05T10:12:15.594Z,101125.72
2023-09-05T10:14:43.598Z,101130.84
2023-09-05T10:17:11.385Z,101123.13
2023-09-05T10:19:39.910Z,101111.94
2023-09-05T10:22:09.250Z,101111.47
2023-09-05T10:24:36.956Z,101109.63
2023-09-05T10:27:05.045Z,101104.09
2023-09-05T10:29:46.192Z,101097.47
2023-09-05T10:32:22.162Z,101094.75
2023-09-05T10:34:49.036Z,101085.97
2023-09-05T10:37:18.777Z,101084.16
2023-09-05T10:39:46.681Z,101087.34
2023-09-05T10:42:14.181Z,101087.72
2023-09-05T10:44:42.613Z,101085.53
2023-09-05T10:47:26.856Z,101077.81
2023-09-05T10:50:01.236Z,101082.31
2023-09-05T10:52:28.547Z,101077.56
2023-09-05T10:54:55.411Z,101075.91
2023-09-05T10:57:51.408Z,101065.16
2023-09-05T11:00:22.295Z,101059.72
2023-09-05T11:02:49.888Z,101062.88
2023-09-05T11:05:19.699Z,101065.03
2023-09-05T11:07:51.511Z,101055.63
2023-09-05T11:10:32.368Z,101054.41
2023-09-05T11:13:15.551Z,101044.38
2023-09-05T11:15:46.183Z,101055.16
2023-09-05T11:18:15.754Z,101071.66
2023-09-05T11:20:47.546Z,101071.38
2023-09-05T11:23:15.236Z,101091.69
2023-09-05T11:25:56.889Z,101086.47
2023-09-05T11:28:25.294Z,101083.41
2023-09-05T11:30:58.275Z,101081.59
2023-09-05T11:33:27.151Z,101092.31
2023-09-05T11:35:54.802Z,101084.66
2023-09-05T11:38:24.183Z,101090.34
2023-09-05T11:40:56.404Z,101089.50
2023-09-05T11:43:24.130Z,101085.44
2023-09-05T11:45:57.057Z,101078.09
2023-09-05T11:48:26.428Z,101074.81
2023-09-05T11:50:53.812Z,101072.72
2023-09-05T11:53:22.218Z,101070.31
2023-09-05T11:55:49.921Z,101081.53
2023-09-05T11:58:18.047Z,101085.63
2023-09-05T12:00:46.483Z,101089.28
2023-09-05T12:03:17.209Z,101084.44
2023-09-05T12:05:51.131Z,101089.34
2023-09-05T12:08:33.716Z,101087.78
2023-09-05T12:11:04.786Z,101086.69
2023-09-05T12:13:46.568Z,101079.38
2023-09-05T12:16:22.524Z,101076.13
2023-09-05T12:18:51.052Z,101076.47
2023-09-05T12:21:18.397Z,101078.78
2023-09-05T12:23:45.157Z,101069.47
2023-09-05T12:26:14.045Z,101074.34
2023-09-05T12:28:41.860Z,101070.38
2023-09-05T12:31:19.204Z,101062.38
2023-09-05T12:33:46.298Z,101067.19
2023-09-05T12:36:13.078Z,101060.69
2023-09-05T12:38:39.817Z,101059.03
2023-09-05T12:41:06.925Z,101060.19
2023-09-05T12:43:34.071Z,101052.22
2023-09-05T12:46:00.845Z,101064.22
2023-09-05T12:48:27.903Z,101053.72
2023-09-05T12:50:56.790Z,101060.91
2023-09-05T12:53:23.641Z,101049.94
2023-09-05T12:55:50.460Z,101045.38
2023-09-05T12:58:17.294Z,101050.22
2023-09-05T13:00:44.386Z,101051.38
2023-09-05T13:03:13.234Z,101059.47
2023-09-05T13:05:41.317Z,101059.38
2023-09-05T13:08:10.144Z,101071.31
2023-09-05T13:10:36.968Z,101049.41
2023-09-05T13:13:06.014Z,101052.78
2023-09-05T13:15:33.746Z,101039.69
2023-09-05T13:18:01.182Z,101038.66
2023-09-05T13:20:31.812Z,101043.34
2023-09-05T13:23:01.085Z,101043.16
2023-09-05T13:25:33.590Z,101039.91
2023-09-05T13:28:02.787Z,101046.59
2023-09-05T13:30:29.694Z,101041.00
2023-09-05T13:32:56.851Z,101033.75
2023-09-05T13:35:23.832Z,101039.78
2023-09-05T13:37:51.717Z,101036.31
2023-09-05T13:40:18.556Z,101039.66
2023-09-05T13:42:45.503Z,101037.66
2023-09-05T13:45:12.369Z,101031.31
2023-09-05T13:47:41.193Z,101035.94
2023-09-05T13:50:10.988Z,101028.47
2023-09-05T13:52:37.764Z,101035.13
2023-09-05T13:55:04.718Z,101023.41
2023-09-05T13:57:31.625Z,101017.19
2023-09-05T13:59:58.606Z,101017.97
2023-09-05T14:02:26.182Z,101013.97
2023-09-05T14:04:53.617Z,101004.03
2023-09-05T14:07:20.492Z,101002.31
2023-09-05T14:09:47.286Z,100995.78
2023-09-05T14:12:19.458Z,100990.88
2023-09-05T14:14:46.468Z,100984.25
2023-09-05T14:17:13.264Z,100992.78
2023-09-05T14:19:40.095Z,100997.50
2023-09-05T14:22:06.831Z,100994.84
2023-09-05T14:24:33.671Z,100983.44
2023-09-05T14:27:00.518Z,100983.44
2023-09-05T14:29:27.305Z,100989.09
2023-09-05T14:31:54.058Z,100990.66
2023-09-05T14:34:21.130Z,100992.13
2023-09-05T14:36:48.027Z,100986.63
2023-09-05T14:39:14.936Z,100989.69
2023-09-05T14:41:41.705Z,100996.75
2023-09-05T14:44:08.460Z,100997.00
2023-09-05T14:46:35.555Z,100996.69
2023-09-05T14:49:03.516Z,100995.50
2023-09-05T14:51:31.424Z,100997.09
2023-09-05T14:53:58.452Z,100991.19
2023-09-05T14:56:25.281Z,100987.59
2023-09-05T14:58:52.119Z,100997.28
2023-09-05T15:01:19.032Z,100996.78
2023-09-05T15:03:45.937Z,100995.63
2023-09-05T15:06:13.060Z,100998.88
2023-09-05T15:08:40.049Z,101000.19
2023-09-05T15:11:06.904Z,100995.31
2023-09-05T15:13:34.483Z,100989.25
2023-09-05T15:16:02.227Z,100987.22
2023-09-05T15:18:30.368Z,100991.22
2023-09-05T15:20:57.552Z,100997.19
2023-09-05T15:23:24.323Z,100997.84
2023-09-05T15:25:51.132Z,100988.19
2023-09-05T15:28:17.949Z,100986.69
2023-09-05T15:30:44.784Z,100987.72
2023-09-05T15:33:14.870Z,100985.31
2023-09-05T15:35:41.701Z,100987.28
2023-09-05T15:38:08.534Z,100980.41
2023-09-05T15:40:35.526Z,100964.34
2023-09-05T15:43:03.669Z,100972.03
2023-09-05T15:45:32.436Z,100965.00
2023-09-05T15:48:01.090Z,100962.63
2023-09-05T15:50:29.706Z,100965.00
2023-09-05T15:52:56.571Z,100958.66
2023-09-05T15:55:23.369Z,100961.22
2023-09-05T15:57:50.341Z,100975.91
2023-09-05T16:00:18.183Z,100963.75
2023-09-05T16:02:46.711Z,100951.69
2023-09-05T16:05:13.594Z,100929.50
2023-09-05T16:07:40.483Z,100931.06
2023-09-05T16:10:07.801Z,100927.09
2023-09-05T16:12:35.591Z,100924.19
2023-09-05T16:15:02.771Z,100909.88
2023-09-05T16:17:29.690Z,100917.09
2023-09-05T16:19:56.475Z,100921.09
2023-09-05T16:22:23.246Z,100922.31
2023-09-05T16:24:50.185Z,100918.38
2023-09-05T16:27:18.122Z,100917.88
2023-09-05T16:29:47.687Z,100929.88
2023-09-05T16:32:15.960Z,100941.53
2023-09-05T16:34:42.953Z,100939.78
2023-09-05T16:37:09.919Z,100937.56
2023-09-05T16:39:38.803Z,100931.59
2023-09-05T16:42:05.936Z,100928.25
2023-09-05T16:44:32.829Z,100928.78
2023-09-05T16:46:59.727Z,100937.34
2023-09-05T16:49:26.591Z,100950.56
2023-09-05T16:51:53.349Z,100944.03
2023-09-05T16:54:20.222Z,100940.81
2023-09-05T16:56:47.054Z,100946.13
2023-09-05T16:59:13.861Z,100943.28
2023-09-05T17:01:41.697Z,100944.81
2023-09-05T17:04:08.638Z,100943.66
2023-09-05T17:06:36.987Z,100950.59
2023-09-05T17:09:08.954Z,100949.50
2023-09-05T17:11:37.152Z,100941.50
2023-09-05T17:14:05.012Z,100945.00
2023-09-05T17:16:32.760Z,100952.72
2023-09-05T17:18:59.701Z,100940.44
2023-09-05T17:21:26.606Z,100944.25
2023-09-05T17:23:53.418Z,100936.72
2023-09-05T17:26:20.302Z,100939.94
2023-09-05T17:28:47.086Z,100935.00
2023-09-05T17:31:14.112Z,100918.13
2023-09-05T17:33:40.938Z,100915.72
2023-09-05T17:36:14.432Z,100916.22
2023-09-05T17:38:41.257Z,100924.09
2023-09-05T17:41:08.886Z,100917.03
2023-09-05T17:43:37.527Z,100905.16
2023-09-05T17:46:07.034Z,100910.56
2023-09-05T17:48:34.548Z,100912.66
2023-09-05T17:51:01.488Z,100927.72
2023-09-05T17:53:30.146Z,100915.28
2023-09-05T17:55:57.294Z,100902.50
2023-09-05T17:58:24.594Z,100911.50
2023-09-05T18:00:51.929Z,100903.59
2023-09-05T18:03:18.887Z,100898.41
2023-09-05T18:05:50.060Z,100887.66
2023-09-05T18:08:17.940Z,100896.97
2023-09-05T18:10:47.425Z,100897.44
2023-09-05T18:13:14.768Z,100906.41
2023-09-05T18:15:42.814Z,100906.44
2023-09-05T18:18:10.313Z,100898.41
2023-09-05T18:20:41.993Z,100903.31
2023-09-05T18:23:08.905Z,100891.25
2023-09-05T18:25:35.879Z,100891.69
2023-09-05T18:28:02.626Z,100905.81
2023-09-05T18:30:29.711Z,100899.50
2023-09-05T18:32:57.370Z,100910.88
2023-09-05T18:35:24.212Z,100915.00
2023-09-05T18:37:51.042Z,100911.03
2023-09-05T18:40:17.995Z,100916.72
2023-09-05T18:42:44.836Z,100920.78
2023-09-05T18:45:11.661Z,100920.78
2023-09-05T18:47:38.649Z,100929.25
2023-09-05T18:50:06.377Z,100928.91
2023-09-05T18:52:33.310Z,100929.81
2023-09-05T18:55:00.162Z,100931.44
2023-09-05T18:57:28.224Z,100923.47
2023-09-05T18:59:55.609Z,100921.53
2023-09-05T19:02:29.438Z,100926.44
2023-09-05T19:04:57.254Z,100915.19
2023-09-05T19:07:24.348Z,100914.84
2023-09-05T19:09:51.285Z,100922.16
2023-09-05T19:12:19.691Z,100915.34
2023-09-05T19:14:48.278Z,100921.00
2023-09-05T19:17:15.461Z,100926.28
2023-09-05T19:19:42.397Z,100927.94
2023-09-05T19:22:09.192Z,100930.41
2023-09-05T19:24:37.660Z,100923.19
2023-09-05T19:27:05.178Z,100936.50
2023-09-05T19:29:32.110Z,100938.53
2023-09-05T19:31:58.845Z,100936.16
2023-09-05T19:34:25.731Z,100944.25
2023-09-05T19:36:53.108Z,100935.47
2023-09-05T19:39:20.141Z,100932.69
2023-09-05T19:41:47.018Z,100941.13
2023-09-05T19:44:13.739Z,100933.94
2023-09-05T19:46:40.586Z,100930.31
2023-09-05T19:49:07.535Z,100936.31
2023-09-05T19:51:34.447Z,100929.94
2023-09-05T19:54:01.300Z,100925.50
2023-09-05T19:56:28.202Z,100926.31
2023-09-05T19:58:56.484Z,100922.31
2023-09-05T20:01:23.350Z,100915.50
2023-09-05T20:03:50.405Z,100925.97
2023-09-05T20:06:18.062Z,100922.34
2023-09-05T20:08:45.412Z,100921.97
2023-09-05T20:11:12.305Z,100921.16
2023-09-05T20:13:39.112Z,100932.44
2023-09-05T20:16:06.253Z,100934.84
2023-09-05T20:18:33.326Z,100931.63
2023-09-05T20:21:02.732Z,100929.25
2023-09-05T20:23:29.787Z,100927.59
2023-09-05T20:25:57.199Z,100928.81
2023-09-05T20:28:23.978Z,100934.84
2023-09-05T20:30:59.492Z,100930.06
2023-09-05T20:33:28.332Z,100927.25
2023-09-05T20:36:03.099Z,100934.88
2023-09-05T20:38:30.224Z,100923.22
2023-09-05T20:40:57.030Z,100930.06
2023-09-05T20:43:25.233Z,100928.47
2023-09-05T20:45:53.365Z,100935.69
2023-09-05T20:48:20.311Z,100930.09
2023-09-05T20:50:47.231Z,100924.47
2023-09-05T20:53:14.225Z,100928.47
2023-09-05T20:55:41.206Z,100923.28
2023-09-05T20:58:08.995Z,100922.47
2023-09-05T21:00:35.953Z,100923.66
2023-09-05T21:03:04.482Z,100924.50
2023-09-05T21:05:32.715Z,100922.88
2023-09-05T21:07:59.783Z,100913.25
2023-09-05T21:10:27.014Z,100908.84
2023-09-05T21:12:57.577Z,100912.84
2023-09-05T21:15:25.489Z,100908.44
2023-09-05T21:17:52.916Z,100911.63
2023-09-05T21:20:20.188Z,100918.88
2023-09-05T21:22:47.214Z,100915.69
2023-09-05T21:25:14.988Z,100918.88
2023-09-05T21:27:42.287Z,100913.66
2023-09-05T21:30:10.342Z,100914.06
2023-09-05T21:32:38.893Z,100909.28
2023-09-05T21:35:06.381Z,100919.69
2023-09-05T21:37:33.178Z,100910.84
2023-09-05T21:40:00.934Z,100906.84
2023-09-05T21:42:27.929Z,100910.88
2023-09-05T21:44:55.500Z,100910.88
2023-09-05T21:47:22.405Z,100909.25
2023-09-05T21:49:52.488Z,100916.09
2023-09-05T21:52:20.664Z,100908.88
2023-09-05T21:54:47.641Z,100907.28
2023-09-05T21:57:14.712Z,100905.25
2023-09-05T21:59:41.720Z,100898.84
2023-09-05T22:02:08.614Z,100895.63
2023-09-05T22:04:38.021Z,100903.66
2023-09-05T22:07:05.483Z,100905.66
2023-09-05T22:09:32.340Z,100907.66
2023-09-05T22:12:05.461Z,100908.06
2023-09-05T22:14:33.446Z,100900.81
2023-09-05T22:17:02.672Z,100899.63
2023-09-05T22:19:30.040Z,100894.81
2023-09-05T22:21:57.540Z,100896.41
2023-09-05T22:24:27.601Z,100906.84
2023-09-05T22:26:56.232Z,100902.03
2023-09-05T22:29:23.525Z,100902.41
2023-09-05T22:31:51.315Z,100897.22
2023-09-05T22:34:19.354Z,100893.19
2023-09-05T22:36:48.317Z,100893.19
2023-09-05T22:39:15.087Z,100890.81
2023-09-05T22:41:41.891Z,100894.81
2023-09-05T22:44:08.889Z,100899.59
2023-09-05T22:46:35.909Z,100902.03
2023-09-05T22:49:02.798Z,100910.03
2023-09-05T22:51:29.711Z,100904.78
2023-09-05T22:53:56.565Z,100908.41
2023-09-05T22:56:23.354Z,100913.59
2023-09-05T22:58:54.135Z,100907.97
2023-09-05T23:01:21.759Z,100908.81
2023-09-05T23:03:48.768Z,100909.19
2023-09-05T23:06:15.759Z,100911.56
2023-09-05T23:08:42.736Z,100915.16
2023-09-05T23:11:09.617Z,100911.97
2023-09-05T23:13:39.648Z,100910.75
2023-09-05T23:16:06.716Z,100915.19
2023-09-05T23:18:38.640Z,100924.41
2023-09-05T23:21:06.447Z,100929.19
2023-09-05T23:23:36.063Z,100921.16
2023-09-05T23:26:04.138Z,100925.59
2023-09-05T23:28:32.110Z,100922.78
2023-09-05T23:31:02.164Z,100918.38
2023-09-05T23:33:31.014Z,100921.16
2023-09-05T23:35:58.244Z,100925.19
2023-09-05T23:38:25.377Z,100924.38
2023-09-05T23:40:52.354Z,100930.81
2023-09-05T23:43:19.233Z,100928.00
2023-09-05T23:45:54.549Z,100925.19
2023-09-05T23:48:24.553Z,100923.56
2023-09-05T23:50:51.803Z,100919.97
2023-09-05T23:53:18.869Z,100927.56
2023-09-05T23:55:46.212Z,100938.78
2023-09-05T23:58:13.388Z,100931.19
